createdAt,value
2019-03-06T00:02:41.100Z,5.31
2019-03-06T00:06:46.447Z,5.36
2019-03-06T00:10:52.162Z,5.46
2019-03-06T00:14:57.608Z,5.49
2019-03-06T00:19:03.078Z,5.49
2019-03-06T00:23:08.815Z,5.49
2019-03-06T00:27:14.320Z,5.45
2019-03-06T00:31:20.020Z,5.50
2019-03-06T00:35:28.327Z,5.44
2019-03-06T00:39:41.839Z,5.39
2019-03-06T00:43:47.290Z,5.32
2019-03-06T00:47:52.903Z,5.34
2019-03-06T00:51:58.624Z,5.27
2019-03-06T00:56:04.099Z,5.26
2019-03-06T01:00:09.883Z,5.29
2019-03-06T01:04:15.219Z,5.28
2019-03-06T01:08:20.991Z,5.31
2019-03-06T01:12:33.127Z,5.30
2019-03-06T01:16:38.554Z,5.29
2019-03-06T01:20:44.001Z,5.40
2019-03-06T01:25:00.451Z,5.36
2019-03-06T01:29:06.243Z,5.38
2019-03-06T01:33:36.362Z,5.38
2019-03-06T01:38:18.891Z,5.43
2019-03-06T01:42:30.324Z,5.45
2019-03-06T01:46:50.402Z,5.47
2019-03-06T01:50:55.767Z,5.49
2019-03-06T01:55:01.828Z,5.47
2019-03-06T01:59:17.123Z,5.51
2019-03-06T02:03:31.046Z,5.52
2019-03-06T02:07:45.888Z,5.50
2019-03-06T02:11:51.363Z,5.49
2019-03-06T02:15:59.508Z,5.54
2019-03-06T02:20:05.708Z,5.51
2019-03-06T02:24:11.135Z,5.55
2019-03-06T02:28:16.479Z,5.58
2019-03-06T02:32:21.913Z,5.54
2019-03-06T02:36:27.440Z,5.61
2019-03-06T02:40:32.861Z,5.55
2019-03-06T02:44:40.112Z,5.54
2019-03-06T02:48:45.436Z,5.56
2019-03-06T02:52:50.874Z,5.57
2019-03-06T02:56:56.224Z,5.57
2019-03-06T03:01:32.684Z,5.64
2019-03-06T03:05:43.217Z,5.53
2019-03-06T03:09:48.580Z,5.56
2019-03-06T03:13:53.935Z,5.67
2019-03-06T03:17:59.615Z,5.67
2019-03-06T03:22:05.045Z,5.59
2019-03-06T03:26:10.531Z,5.57
2019-03-06T03:30:16.375Z,5.46
2019-03-06T03:34:22.032Z,5.54
2019-03-06T03:38:27.580Z,5.63
2019-03-06T03:42:33.020Z,5.64
2019-03-06T03:46:38.670Z,5.48
2019-03-06T03:50:44.369Z,5.52
2019-03-06T03:54:49.694Z,5.71
2019-03-06T03:58:55.158Z,5.79
2019-03-06T04:03:00.710Z,5.85
2019-03-06T04:07:06.172Z,5.92
2019-03-06T04:11:11.592Z,5.92
2019-03-06T04:15:17.172Z,6.00
2019-03-06T04:19:22.599Z,6.03
2019-03-06T04:23:28.228Z,6.08
2019-03-06T04:27:33.640Z,6.03
2019-03-06T04:31:39.311Z,5.94
2019-03-06T04:35:44.847Z,5.93
2019-03-06T04:39:50.192Z,5.91
2019-03-06T04:43:55.884Z,5.86
2019-03-06T04:48:01.234Z,5.94
2019-03-06T04:52:06.715Z,5.97
2019-03-06T04:56:12.150Z,5.99
2019-03-06T05:00:17.839Z,5.96
2019-03-06T05:04:23.267Z,5.92
2019-03-06T05:08:28.623Z,5.97
2019-03-06T05:12:34.005Z,6.01
2019-03-06T05:17:00.133Z,5.99
2019-03-06T05:21:05.638Z,6.05
2019-03-06T05:25:11.198Z,6.11
2019-03-06T05:29:16.698Z,6.15
2019-03-06T05:33:22.397Z,6.22
2019-03-06T05:38:09.724Z,6.20
2019-03-06T05:42:15.182Z,6.07
2019-03-06T05:46:20.791Z,6.32
2019-03-06T05:50:26.240Z,6.31
2019-03-06T05:54:31.624Z,6.37
2019-03-06T05:58:37.213Z,6.32
2019-03-06T06:02:42.620Z,6.43
2019-03-06T06:06:48.062Z,6.51
2019-03-06T06:10:53.469Z,6.55
2019-03-06T06:14:58.729Z,6.55
2019-03-06T06:19:04.052Z,6.53
2019-03-06T06:23:34.213Z,6.63
2019-03-06T06:27:39.959Z,6.70
2019-03-06T06:31:45.303Z,6.84
2019-03-06T06:35:50.914Z,6.85
2019-03-06T06:39:56.615Z,6.84
2019-03-06T06:44:02.133Z,6.93
2019-03-06T06:48:19.391Z,6.91
2019-03-06T06:53:38.116Z,6.91
2019-03-06T06:58:51.565Z,6.98
2019-03-06T07:04:26.443Z,7.01
2019-03-06T07:08:49.393Z,7.01
2019-03-06T07:13:12.811Z,7.04
2019-03-06T07:17:45.905Z,7.07
2019-03-06T07:21:57.119Z,7.05
2019-03-06T07:26:30.266Z,7.05
2019-03-06T07:31:00.348Z,7.07
2019-03-06T07:36:16.391Z,7.15
2019-03-06T07:40:27.674Z,7.18
2019-03-06T07:44:59.898Z,7.26
2019-03-06T07:49:45.120Z,7.31
2019-03-06T07:54:08.204Z,7.41
2019-03-06T07:58:53.124Z,7.45
2019-03-06T08:03:15.344Z,7.50
2019-03-06T08:07:20.685Z,7.56
2019-03-06T08:11:33.028Z,7.66
2019-03-06T08:15:47.866Z,7.75
2019-03-06T08:20:19.250Z,7.81
2019-03-06T08:24:30.789Z,7.96
2019-03-06T08:28:36.283Z,8.16
2019-03-06T08:32:41.699Z,8.31
2019-03-06T08:36:47.048Z,8.40
2019-03-06T08:40:53.057Z,8.50
2019-03-06T08:44:58.790Z,8.63
2019-03-06T08:49:43.043Z,8.78
2019-03-06T08:54:00.977Z,8.97
2019-03-06T08:58:40.350Z,8.98
2019-03-06T09:03:06.291Z,8.95
2019-03-06T09:07:30.981Z,8.98
2019-03-06T09:11:43.941Z,9.08
2019-03-06T09:16:06.961Z,9.14
2019-03-06T09:20:37.151Z,9.16
2019-03-06T09:25:02.291Z,9.27
2019-03-06T09:29:25.273Z,9.42
2019-03-06T09:33:52.631Z,9.55
2019-03-06T09:38:19.754Z,9.69
2019-03-06T09:43:02.362Z,9.89
2019-03-06T09:47:27.113Z,10.37
2019-03-06T09:51:54.302Z,10.57
2019-03-06T09:56:14.086Z,10.51
2019-03-06T10:00:45.403Z,10.49
2019-03-06T10:05:15.841Z,10.62
2019-03-06T10:09:28.608Z,10.69
2019-03-06T10:13:52.310Z,10.63
2019-03-06T10:18:08.292Z,10.83
2019-03-06T10:22:13.717Z,10.99
2019-03-06T10:26:19.149Z,10.95
2019-03-06T10:30:24.581Z,11.09
2019-03-06T10:34:30.450Z,11.31
2019-03-06T10:38:38.792Z,11.49
2019-03-06T10:42:44.227Z,11.98
2019-03-06T10:46:49.729Z,11.83
2019-03-06T10:50:55.167Z,11.94
2019-03-06T10:55:00.580Z,12.22
2019-03-06T10:59:06.439Z,12.34
2019-03-06T11:03:11.950Z,12.35
2019-03-06T11:07:17.576Z,12.41
2019-03-06T11:11:23.079Z,12.42
2019-03-06T11:15:28.478Z,12.11
2019-03-06T11:19:34.054Z,11.97
2019-03-06T11:23:39.547Z,12.17
2019-03-06T11:27:44.992Z,12.34
2019-03-06T11:31:50.481Z,12.45
2019-03-06T11:35:57.202Z,12.47
2019-03-06T11:40:03.267Z,12.42
2019-03-06T11:44:09.288Z,12.88
2019-03-06T11:48:15.231Z,12.54
2019-03-06T11:52:22.548Z,12.45
2019-03-06T11:56:28.532Z,12.84
2019-03-06T12:00:37.435Z,12.70
2019-03-06T12:04:42.873Z,12.67
2019-03-06T12:08:48.293Z,13.00
2019-03-06T12:12:53.969Z,13.19
2019-03-06T12:16:59.388Z,13.22
2019-03-06T12:21:05.211Z,13.50
2019-03-06T12:25:11.960Z,13.14
2019-03-06T12:29:17.411Z,13.12
2019-03-06T12:33:26.254Z,13.24
2019-03-06T12:37:32.621Z,13.10
2019-03-06T12:41:38.369Z,13.16
2019-03-06T12:46:27.389Z,12.73
2019-03-06T12:50:33.229Z,12.69
2019-03-06T12:54:39.519Z,12.71
2019-03-06T12:58:44.973Z,12.81
2019-03-06T13:02:50.636Z,12.64
2019-03-06T13:06:56.099Z,12.53
2019-03-06T13:11:01.442Z,12.69
2019-03-06T13:15:08.590Z,12.36
2019-03-06T13:19:14.094Z,12.30
2019-03-06T13:23:19.607Z,12.34
2019-03-06T13:27:24.988Z,12.36
2019-03-06T13:31:30.420Z,12.38
2019-03-06T13:35:36.521Z,12.24
2019-03-06T13:39:41.990Z,12.28
2019-03-06T13:43:47.595Z,12.19
2019-03-06T13:47:53.290Z,12.24
2019-03-06T13:51:59.220Z,12.24
2019-03-06T13:56:06.360Z,12.40
2019-03-06T14:00:15.318Z,12.42
2019-03-06T14:04:20.717Z,12.38
2019-03-06T14:08:26.139Z,12.33
2019-03-06T14:12:31.579Z,12.02
2019-03-06T14:16:37.458Z,11.79
2019-03-06T14:20:42.890Z,11.69
2019-03-06T14:24:48.590Z,11.59
2019-03-06T14:28:54.007Z,11.38
2019-03-06T14:32:59.515Z,11.27
2019-03-06T14:37:05.390Z,11.07
2019-03-06T14:41:26.467Z,10.84
2019-03-06T14:45:45.872Z,10.72
2019-03-06T14:49:54.456Z,10.76
2019-03-06T14:54:02.521Z,10.78
2019-03-06T14:58:10.160Z,10.76
2019-03-06T15:02:15.663Z,10.60
2019-03-06T15:06:21.111Z,10.60
2019-03-06T15:10:26.905Z,10.56
2019-03-06T15:14:36.206Z,10.56
2019-03-06T15:18:39.854Z,10.57
2019-03-06T15:22:45.279Z,10.42
2019-03-06T15:26:51.251Z,10.42
2019-03-06T15:30:56.673Z,10.47
2019-03-06T15:35:02.204Z,10.55
2019-03-06T15:39:42.566Z,10.58
2019-03-06T15:43:41.758Z,10.54
2019-03-06T15:47:47.490Z,10.50
2019-03-06T15:51:53.043Z,10.64
2019-03-06T15:55:58.742Z,10.54
2019-03-06T16:00:04.818Z,10.61
2019-03-06T16:04:10.350Z,10.61
2019-03-06T16:08:15.986Z,10.55
2019-03-06T16:12:21.705Z,10.53
2019-03-06T16:16:27.366Z,10.53
2019-03-06T16:20:32.792Z,10.49
2019-03-06T16:24:38.221Z,10.56
2019-03-06T16:28:43.963Z,10.57
2019-03-06T16:32:50.108Z,10.48
2019-03-06T16:36:55.539Z,10.49
2019-03-06T16:41:01.146Z,10.70
2019-03-06T16:45:06.816Z,11.00
2019-03-06T16:49:12.316Z,10.91
2019-03-06T16:53:18.259Z,10.90
2019-03-06T16:57:23.925Z,10.95
2019-03-06T17:01:29.672Z,10.70
2019-03-06T17:05:35.566Z,10.43
2019-03-06T17:09:41.035Z,10.37
2019-03-06T17:13:46.465Z,10.14
2019-03-06T17:17:52.955Z,10.05
2019-03-06T17:21:58.460Z,10.09
2019-03-06T17:26:03.874Z,9.94
2019-03-06T17:30:13.760Z,9.96
2019-03-06T17:34:19.154Z,9.87
2019-03-06T17:38:24.610Z,9.86
2019-03-06T17:42:30.058Z,9.75
2019-03-06T17:46:35.649Z,9.78
2019-03-06T17:50:41.567Z,9.81
2019-03-06T17:54:47.014Z,9.76
2019-03-06T17:58:52.435Z,9.86
2019-03-06T18:02:58.754Z,9.86
2019-03-06T18:07:06.083Z,9.74
2019-03-06T18:11:11.724Z,9.71
2019-03-06T18:15:17.922Z,9.66
2019-03-06T18:19:23.676Z,9.74
2019-03-06T18:23:29.478Z,9.69
2019-03-06T18:27:34.863Z,9.73
2019-03-06T18:31:40.417Z,9.79
2019-03-06T18:35:45.824Z,9.87
2019-03-06T18:39:51.463Z,9.83
2019-03-06T18:43:57.268Z,9.77
2019-03-06T18:48:03.010Z,10.05
2019-03-06T18:52:08.474Z,9.94
2019-03-06T18:56:13.942Z,9.78
2019-03-06T19:00:21.035Z,9.92
2019-03-06T19:04:26.790Z,10.03
2019-03-06T19:08:32.334Z,10.15
2019-03-06T19:12:37.807Z,10.15
2019-03-06T19:16:43.189Z,10.31
2019-03-06T19:20:48.921Z,10.20
2019-03-06T19:24:54.640Z,10.44
2019-03-06T19:29:00.164Z,10.30
2019-03-06T19:33:06.092Z,10.33
2019-03-06T19:37:11.556Z,10.35
2019-03-06T19:41:17.493Z,10.31
2019-03-06T19:45:23.115Z,10.42
2019-03-06T19:49:28.924Z,10.42
2019-03-06T19:53:34.726Z,10.32
2019-03-06T19:58:03.561Z,10.35
2019-03-06T20:02:09.157Z,10.37
2019-03-06T20:06:14.690Z,10.17
2019-03-06T20:10:20.512Z,10.12
2019-03-06T20:14:26.065Z,10.10
2019-03-06T20:18:32.385Z,10.12
2019-03-06T20:22:38.684Z,10.05
2019-03-06T20:26:44.162Z,9.97
2019-03-06T20:30:49.965Z,9.91
2019-03-06T20:34:55.765Z,9.97
2019-03-06T20:39:04.888Z,9.89
2019-03-06T20:43:15.294Z,9.86
2019-03-06T20:47:21.044Z,9.77
2019-03-06T20:51:28.149Z,9.74
2019-03-06T20:55:33.705Z,9.60
2019-03-06T20:59:56.070Z,9.62
2019-03-06T21:04:01.907Z,9.58
2019-03-06T21:08:10.604Z,9.57
2019-03-06T21:12:16.668Z,9.65
2019-03-06T21:16:22.085Z,9.48
2019-03-06T21:20:37.320Z,9.49
2019-03-06T21:24:43.038Z,9.54
2019-03-06T21:28:48.675Z,9.55
2019-03-06T21:32:55.614Z,9.45
2019-03-06T21:37:02.681Z,9.56
2019-03-06T21:41:08.866Z,9.61
2019-03-06T21:45:14.870Z,9.69
2019-03-06T21:49:20.581Z,9.52
2019-03-06T21:53:26.595Z,9.52
2019-03-06T21:57:36.575Z,9.56
2019-03-06T22:01:42.648Z,9.49
2019-03-06T22:05:50.515Z,9.41
2019-03-06T22:09:56.204Z,9.41
2019-03-06T22:14:01.649Z,9.38
2019-03-06T22:18:07.574Z,9.38
2019-03-06T22:22:13.483Z,9.38
2019-03-06T22:26:23.915Z,9.26
2019-03-06T22:30:32.470Z,9.26
2019-03-06T22:34:38.182Z,9.24
2019-03-06T22:38:48.043Z,9.14
2019-03-06T22:42:57.759Z,9.15
2019-03-06T22:47:04.401Z,9.09
2019-03-06T22:51:10.104Z,9.19
2019-03-06T22:55:16.754Z,9.09
2019-03-06T22:59:22.383Z,9.11
2019-03-06T23:03:30.706Z,9.07
2019-03-06T23:07:36.537Z,9.08
2019-03-06T23:11:42.889Z,9.04
2019-03-06T23:15:48.451Z,9.02
2019-03-06T23:19:53.857Z,8.97
2019-03-06T23:23:59.271Z,9.04
2019-03-06T23:28:04.682Z,9.06
2019-03-06T23:32:10.485Z,9.15
2019-03-06T23:36:15.844Z,9.12
2019-03-06T23:40:21.525Z,9.15
2019-03-06T23:44:27.008Z,9.10
2019-03-06T23:48:32.689Z,9.26
2019-03-06T23:52:57.601Z,9.27
2019-03-06T23:57:03.135Z,9.26
